createdAt,value
2017-12-20T00:02:27.127Z,2.57
2017-12-20T00:04:54.728Z,2.20
2017-12-20T00:07:23.065Z,2.70
2017-12-20T00:09:50.633Z,3.00
2017-12-20T00:12:18.238Z,2.60
2017-12-20T00:14:46.583Z,2.40
2017-12-20T00:17:14.199Z,2.43
2017-12-20T00:19:41.779Z,2.23
2017-12-20T00:22:09.397Z,1.90
2017-12-20T00:24:37.786Z,2.30
2017-12-20T00:27:05.363Z,3.07
2017-12-20T00:29:32.949Z,2.40
2017-12-20T00:32:00.527Z,2.37
2017-12-20T00:34:28.162Z,2.20
2017-12-20T00:36:55.784Z,2.10
2017-12-20T00:39:24.128Z,1.83
2017-12-20T00:41:51.711Z,2.20
2017-12-20T00:44:20.063Z,2.00
2017-12-20T00:46:47.651Z,2.13
2017-12-20T00:49:16.035Z,2.37
2017-12-20T00:51:44.385Z,2.20
2017-12-20T00:54:11.997Z,1.97
2017-12-20T00:56:39.583Z,2.20
2017-12-20T00:59:07.185Z,2.60
2017-12-20T01:01:35.563Z,1.73
2017-12-20T01:04:03.915Z,2.00
2017-12-20T01:06:31.481Z,2.00
2017-12-20T01:08:59.070Z,2.03
2017-12-20T01:11:27.442Z,2.60
2017-12-20T01:13:55.836Z,1.93
2017-12-20T01:16:24.170Z,1.73
2017-12-20T01:18:51.756Z,1.97
2017-12-20T01:21:20.126Z,2.07
2017-12-20T01:23:47.709Z,1.70
2017-12-20T01:26:16.070Z,2.10
2017-12-20T01:28:43.659Z,1.73
2017-12-20T01:31:11.262Z,1.80
2017-12-20T01:33:38.853Z,1.50
2017-12-20T01:36:07.219Z,1.57
2017-12-20T01:38:34.825Z,2.10
2017-12-20T01:41:02.397Z,2.10
2017-12-20T01:43:29.973Z,2.03
2017-12-20T01:45:57.553Z,2.40
2017-12-20T01:48:25.159Z,2.10
2017-12-20T01:50:53.538Z,2.20
2017-12-20T01:53:21.890Z,2.43
2017-12-20T01:55:49.460Z,2.00
2017-12-20T01:58:17.048Z,2.20
2017-12-20T02:00:44.683Z,1.93
2017-12-20T02:03:13.071Z,2.07
2017-12-20T02:05:41.428Z,2.30
2017-12-20T02:08:09.005Z,2.27
2017-12-20T02:10:37.360Z,2.30
2017-12-20T02:13:04.938Z,2.00
2017-12-20T02:15:33.306Z,1.93
2017-12-20T02:18:00.903Z,1.73
2017-12-20T02:20:28.534Z,1.83
2017-12-20T02:22:56.149Z,2.10
2017-12-20T02:25:23.744Z,1.60
2017-12-20T02:27:51.357Z,1.87
2017-12-20T02:30:18.921Z,1.70
2017-12-20T02:32:46.496Z,1.90
2017-12-20T02:35:14.083Z,1.60
2017-12-20T02:37:41.652Z,1.50
2017-12-20T02:40:09.268Z,1.83
2017-12-20T02:42:36.868Z,1.57
2017-12-20T02:45:04.459Z,1.73
2017-12-20T02:47:32.809Z,1.50
2017-12-20T02:50:00.409Z,1.80
2017-12-20T02:52:28.773Z,1.87
2017-12-20T02:54:57.127Z,1.60
2017-12-20T02:57:24.708Z,1.70
2017-12-20T02:59:52.285Z,1.80
2017-12-20T03:02:20.618Z,1.80
2017-12-20T03:04:48.213Z,2.00
2017-12-20T03:07:16.557Z,2.00
2017-12-20T03:09:44.130Z,1.90
2017-12-20T03:12:11.725Z,1.70
2017-12-20T03:14:40.076Z,1.70
2017-12-20T03:17:07.680Z,1.80
2017-12-20T03:19:35.246Z,1.73
2017-12-20T03:22:02.825Z,2.00
2017-12-20T03:24:31.185Z,1.90
2017-12-20T03:26:58.760Z,1.73
2017-12-20T03:29:26.371Z,1.63
2017-12-20T03:31:54.714Z,1.90
2017-12-20T03:34:22.341Z,1.53
2017-12-20T03:36:49.924Z,1.73
2017-12-20T03:39:17.507Z,1.90
2017-12-20T03:41:45.123Z,1.63
2017-12-20T03:44:12.714Z,1.40
2017-12-20T03:46:40.289Z,1.80
2017-12-20T03:49:07.862Z,1.50
2017-12-20T03:51:35.433Z,1.50
2017-12-20T03:54:03.025Z,1.40
2017-12-20T03:56:30.616Z,1.50
2017-12-20T03:58:58.958Z,1.87
2017-12-20T04:01:27.298Z,1.53
2017-12-20T04:03:54.891Z,1.47
2017-12-20T04:06:22.504Z,1.60
2017-12-20T04:08:50.088Z,1.53
2017-12-20T04:11:17.677Z,1.70
2017-12-20T04:13:46.008Z,1.50
2017-12-20T04:16:13.581Z,1.40
2017-12-20T04:18:41.177Z,1.70
2017-12-20T04:21:08.780Z,1.40
2017-12-20T04:23:36.365Z,1.87
2017-12-20T04:26:03.950Z,1.60
2017-12-20T04:28:32.308Z,1.43
2017-12-20T04:30:59.912Z,1.43
2017-12-20T04:33:27.485Z,2.27
2017-12-20T04:35:55.074Z,1.50
2017-12-20T04:38:22.660Z,1.57
2017-12-20T04:40:51.001Z,1.40
2017-12-20T04:43:18.588Z,1.53
2017-12-20T04:45:46.172Z,1.37
2017-12-20T04:48:13.738Z,1.23
2017-12-20T04:50:42.073Z,1.20
2017-12-20T04:53:09.672Z,1.50
2017-12-20T04:55:38.051Z,1.70
2017-12-20T04:58:06.385Z,1.33
2017-12-20T05:00:33.964Z,1.30
2017-12-20T05:03:01.544Z,1.57
2017-12-20T05:05:29.899Z,1.00
2017-12-20T05:07:57.549Z,1.70
2017-12-20T05:10:25.131Z,1.20
2017-12-20T05:12:52.710Z,1.30
2017-12-20T05:15:20.321Z,1.43
2017-12-20T05:17:47.914Z,1.40
2017-12-20T05:20:17.145Z,1.33
2017-12-20T05:22:44.755Z,1.20
2017-12-20T05:25:12.320Z,1.03
2017-12-20T05:27:39.886Z,1.60
2017-12-20T05:30:07.491Z,1.10
2017-12-20T05:32:35.089Z,1.50
2017-12-20T05:35:02.667Z,1.20
2017-12-20T05:37:30.264Z,1.10
2017-12-20T05:40:00.817Z,1.30
2017-12-20T05:42:28.410Z,1.20
2017-12-20T05:44:56.019Z,1.30
2017-12-20T05:47:25.494Z,1.30
2017-12-20T05:49:53.088Z,1.40
2017-12-20T05:52:21.465Z,1.60
2017-12-20T05:54:49.806Z,1.23
2017-12-20T05:57:17.403Z,2.17
2017-12-20T05:59:44.981Z,1.90
2017-12-20T06:02:12.555Z,2.00
2017-12-20T06:04:40.116Z,1.87
2017-12-20T06:07:07.703Z,1.90
2017-12-20T06:09:35.331Z,1.87
2017-12-20T06:12:02.905Z,1.87
2017-12-20T06:14:30.501Z,2.50
2017-12-20T06:16:58.090Z,2.10
2017-12-20T06:19:25.684Z,2.27
2017-12-20T06:21:53.272Z,1.73
2017-12-20T06:24:20.887Z,1.77
2017-12-20T06:26:48.496Z,1.83
2017-12-20T06:29:16.086Z,2.10
2017-12-20T06:31:44.440Z,1.73
2017-12-20T06:34:12.051Z,2.60
2017-12-20T06:36:39.648Z,2.07
2017-12-20T06:39:07.227Z,1.90
2017-12-20T06:41:34.818Z,1.63
2017-12-20T06:44:03.162Z,2.00
2017-12-20T06:46:30.789Z,1.90
2017-12-20T06:48:58.439Z,1.60
2017-12-20T06:51:26.038Z,2.00
2017-12-20T06:53:53.622Z,1.40
2017-12-20T06:56:21.995Z,1.90
2017-12-20T06:58:50.450Z,1.63
2017-12-20T07:01:18.047Z,1.50
2017-12-20T07:03:46.403Z,2.13
2017-12-20T07:06:13.984Z,1.90
2017-12-20T07:08:42.320Z,1.90
2017-12-20T07:11:09.917Z,2.40
2017-12-20T07:13:37.507Z,1.47
2017-12-20T07:16:05.091Z,2.27
2017-12-20T07:18:32.694Z,1.40
2017-12-20T07:21:00.281Z,1.73
2017-12-20T07:23:28.620Z,1.23
2017-12-20T07:25:56.196Z,1.47
2017-12-20T07:28:23.793Z,1.10
2017-12-20T07:30:51.376Z,1.63
2017-12-20T07:33:18.960Z,1.47
2017-12-20T07:35:46.561Z,1.60
2017-12-20T07:38:14.901Z,1.50
2017-12-20T07:40:43.080Z,1.27
2017-12-20T07:43:10.657Z,1.50
2017-12-20T07:45:39.017Z,1.40
2017-12-20T07:48:06.594Z,1.50
2017-12-20T07:50:35.510Z,1.50
2017-12-20T07:53:03.129Z,1.40
2017-12-20T07:55:30.742Z,1.47
2017-12-20T07:57:58.310Z,1.47
2017-12-20T08:00:25.903Z,1.80
2017-12-20T08:02:53.494Z,1.57
2017-12-20T08:05:21.110Z,1.40
2017-12-20T08:07:48.711Z,1.57
2017-12-20T08:10:17.094Z,1.50
2017-12-20T08:12:47.870Z,1.10
2017-12-20T08:15:15.466Z,1.60
2017-12-20T08:17:43.198Z,1.40
2017-12-20T08:20:10.795Z,1.27
2017-12-20T08:22:38.410Z,1.20
2017-12-20T08:25:05.997Z,1.20
2017-12-20T08:27:33.601Z,1.13
2017-12-20T08:30:02.185Z,1.27
2017-12-20T08:32:29.828Z,1.30
2017-12-20T08:35:08.166Z,1.60
2017-12-20T08:37:36.521Z,1.60
2017-12-20T08:40:04.108Z,1.20
2017-12-20T08:42:32.464Z,1.40
2017-12-20T08:45:00.092Z,1.33
2017-12-20T08:47:27.674Z,1.00
2017-12-20T08:49:55.245Z,1.17
2017-12-20T08:52:22.845Z,1.20
2017-12-20T08:54:51.190Z,1.63
2017-12-20T08:57:18.766Z,2.07
2017-12-20T08:59:47.144Z,1.20
2017-12-20T09:02:15.489Z,1.60
2017-12-20T09:04:43.226Z,1.27
2017-12-20T09:07:10.822Z,1.40
2017-12-20T09:09:39.262Z,0.90
2017-12-20T09:12:06.872Z,1.57
2017-12-20T09:14:34.504Z,1.30
2017-12-20T09:17:02.209Z,0.97
2017-12-20T09:19:29.777Z,1.27
2017-12-20T09:21:57.368Z,1.37
2017-12-20T09:24:24.984Z,1.37
2017-12-20T09:26:52.561Z,1.30
2017-12-20T09:46:40.229Z,1.30
2017-12-20T09:49:07.801Z,1.10
2017-12-20T09:51:35.373Z,1.07
2017-12-20T09:54:02.973Z,1.30
2017-12-20T09:56:30.575Z,1.20
2017-12-20T09:58:58.185Z,1.20
2017-12-20T10:01:25.800Z,1.20
2017-12-20T10:03:53.373Z,1.30
2017-12-20T10:06:20.969Z,1.50
2017-12-20T10:08:48.560Z,1.20
2017-12-20T10:11:16.952Z,1.50
2017-12-20T10:13:45.309Z,1.30
2017-12-20T10:16:12.895Z,1.13
2017-12-20T10:21:33.914Z,1.40
2017-12-20T10:24:02.295Z,1.40
2017-12-20T10:26:30.624Z,1.23
2017-12-20T10:28:59.114Z,1.10
2017-12-20T10:31:26.695Z,1.30
2017-12-20T10:33:54.284Z,1.33
2017-12-20T10:36:21.899Z,1.10
2017-12-20T10:38:49.480Z,1.13
2017-12-20T10:41:17.203Z,1.10
2017-12-20T10:43:44.786Z,1.50
2017-12-20T10:46:12.367Z,1.13
2017-12-20T10:48:39.961Z,1.03
2017-12-20T10:51:07.530Z,1.27
2017-12-20T10:53:35.891Z,1.00
2017-12-20T10:56:03.471Z,1.33
2017-12-20T10:58:31.070Z,1.10
2017-12-20T11:00:58.682Z,1.30
2017-12-20T11:03:26.268Z,1.20
2017-12-20T11:05:54.793Z,1.10
2017-12-20T11:08:22.366Z,1.00
2017-12-20T11:10:50.759Z,1.07
2017-12-20T11:13:18.382Z,1.10
2017-12-20T11:15:45.974Z,0.90
2017-12-20T11:18:14.565Z,1.30
2017-12-20T11:20:42.157Z,1.00
2017-12-20T11:23:09.733Z,1.07
2017-12-20T11:25:38.088Z,0.97
2017-12-20T11:28:06.515Z,1.10
2017-12-20T11:30:34.712Z,1.37
2017-12-20T11:33:03.066Z,5.50
2017-12-20T11:35:30.670Z,8.53
2017-12-20T11:37:58.303Z,8.20
2017-12-20T11:40:26.661Z,9.23
2017-12-20T11:42:54.257Z,9.80
2017-12-20T11:45:21.880Z,9.20
2017-12-20T11:47:49.471Z,9.53
2017-12-20T11:50:17.864Z,9.90
2017-12-20T11:52:45.479Z,10.50
2017-12-20T11:55:13.087Z,9.50
2017-12-20T11:57:40.695Z,10.70
2017-12-20T12:00:08.338Z,11.67
2017-12-20T12:02:35.948Z,11.97
2017-12-20T12:05:04.312Z,12.80
2017-12-20T12:07:31.901Z,13.83
2017-12-20T12:10:00.267Z,16.83
2017-12-20T12:12:28.626Z,14.43
2017-12-20T12:14:56.250Z,15.43
2017-12-20T12:17:23.845Z,16.20
2017-12-20T12:19:51.430Z,15.60
2017-12-20T12:22:19.790Z,16.53
2017-12-20T12:24:47.390Z,17.40
2017-12-20T12:27:15.757Z,15.80
2017-12-20T12:29:44.102Z,15.23
2017-12-20T12:32:11.744Z,15.40
2017-12-20T12:34:55.966Z,15.87
2017-12-20T12:37:23.575Z,16.40
2017-12-20T12:39:51.205Z,15.87
2017-12-20T12:42:20.751Z,16.37
2017-12-20T12:44:48.330Z,15.53
2017-12-20T12:47:16.708Z,14.60
2017-12-20T12:49:44.316Z,15.03
2017-12-20T12:52:11.934Z,15.27
2017-12-20T12:54:41.321Z,14.70
2017-12-20T12:57:08.909Z,15.50
2017-12-20T12:59:37.270Z,14.40
2017-12-20T13:02:06.007Z,15.70
2017-12-20T13:04:33.638Z,12.83
2017-12-20T13:07:02.001Z,14.27
2017-12-20T13:09:29.615Z,13.83
2017-12-20T13:11:57.964Z,14.13
2017-12-20T13:14:25.550Z,14.40
2017-12-20T13:16:53.175Z,13.30
2017-12-20T13:19:21.522Z,13.10
2017-12-20T13:21:49.151Z,12.97
2017-12-20T13:24:16.758Z,13.23
2017-12-20T13:26:44.336Z,13.77
2017-12-20T13:29:12.705Z,12.93
2017-12-20T13:31:41.405Z,12.40
2017-12-20T13:34:09.771Z,11.17
2017-12-20T13:36:37.369Z,12.47
2017-12-20T13:39:04.956Z,11.40
2017-12-20T13:41:32.566Z,12.90
2017-12-20T13:44:00.918Z,11.00
2017-12-20T13:46:28.504Z,11.97
2017-12-20T13:48:56.934Z,12.37
2017-12-20T13:51:24.535Z,11.60
2017-12-20T13:53:52.957Z,11.43
2017-12-20T13:56:20.565Z,11.10
2017-12-20T13:58:48.168Z,12.10
2017-12-20T14:01:15.754Z,10.83
2017-12-20T14:03:43.348Z,11.27
2017-12-20T14:06:10.968Z,10.77
2017-12-20T14:08:38.545Z,11.07
2017-12-20T14:11:06.120Z,10.27
2017-12-20T14:13:33.703Z,11.50
2017-12-20T14:16:02.124Z,10.43
2017-12-20T14:18:29.936Z,10.67
2017-12-20T14:20:57.517Z,9.57
2017-12-20T14:23:25.885Z,10.50
2017-12-20T14:25:53.464Z,9.83
2017-12-20T14:28:21.797Z,8.80
2017-12-20T14:30:49.411Z,9.23
2017-12-20T14:33:17.000Z,10.13
2017-12-20T14:35:44.608Z,9.40
2017-12-20T14:38:12.957Z,9.03
2017-12-20T14:40:40.551Z,9.87
2017-12-20T14:43:08.923Z,9.20
2017-12-20T14:45:36.498Z,9.03
2017-12-20T14:48:04.863Z,9.40
2017-12-20T14:50:53.539Z,9.30
2017-12-20T14:53:21.896Z,8.23
2017-12-20T14:55:49.519Z,8.50
2017-12-20T14:58:17.096Z,8.33
2017-12-20T15:00:44.795Z,8.37
2017-12-20T15:03:12.464Z,7.73
2017-12-20T15:05:40.882Z,8.33
2017-12-20T15:08:08.583Z,7.30
2017-12-20T15:10:36.174Z,7.40
2017-12-20T15:13:04.592Z,7.07
2017-12-20T15:15:32.237Z,7.90
2017-12-20T15:18:00.636Z,7.13
2017-12-20T15:20:30.678Z,6.27
2017-12-20T15:22:59.080Z,7.60
2017-12-20T15:25:27.537Z,7.20
2017-12-20T15:27:58.245Z,6.70
2017-12-20T15:30:25.843Z,7.37
2017-12-20T15:32:53.417Z,7.67
2017-12-20T15:35:21.772Z,6.70
2017-12-20T15:37:49.399Z,5.73
2017-12-20T15:40:16.987Z,5.50
2017-12-20T15:42:44.634Z,6.07
2017-12-20T15:45:12.192Z,4.80
2017-12-20T15:47:39.772Z,5.50
2017-12-20T15:50:10.957Z,5.00
2017-12-20T15:52:40.267Z,5.13
2017-12-20T15:55:07.836Z,5.40
2017-12-20T15:57:35.443Z,5.90
2017-12-20T16:00:03.029Z,5.60
2017-12-20T16:02:31.411Z,4.80
2017-12-20T16:05:00.258Z,4.40
2017-12-20T16:07:27.847Z,5.30
2017-12-20T16:09:55.422Z,5.63
2017-12-20T16:12:23.780Z,4.90
2017-12-20T16:14:51.399Z,4.40
2017-12-20T16:17:18.999Z,4.83
2017-12-20T16:19:46.626Z,4.20
2017-12-20T16:22:14.286Z,5.07
2017-12-20T16:24:43.170Z,4.13
2017-12-20T16:27:10.765Z,4.60
2017-12-20T16:29:38.345Z,4.60
2017-12-20T16:32:05.982Z,4.70
2017-12-20T16:34:33.564Z,4.20
2017-12-20T16:37:01.167Z,3.83
2017-12-20T16:39:28.794Z,3.77
2017-12-20T16:41:56.370Z,4.20
2017-12-20T16:44:23.960Z,3.83
2017-12-20T16:46:51.534Z,4.47
2017-12-20T16:49:19.122Z,4.87
2017-12-20T16:51:46.813Z,4.40
2017-12-20T16:54:15.180Z,4.20
2017-12-20T16:56:42.788Z,4.37
2017-12-20T16:59:10.360Z,3.80
2017-12-20T17:01:37.948Z,3.90
2017-12-20T17:04:05.567Z,4.90
2017-12-20T17:06:33.163Z,3.60
2017-12-20T17:09:00.742Z,3.60
2017-12-20T17:11:28.334Z,3.33
2017-12-20T17:13:56.669Z,3.53
2017-12-20T17:16:24.244Z,4.20
2017-12-20T17:18:51.821Z,3.90
2017-12-20T17:21:20.207Z,3.93
2017-12-20T17:23:48.560Z,3.27
2017-12-20T17:26:16.165Z,3.40
2017-12-20T17:28:44.533Z,4.13
2017-12-20T17:31:12.136Z,3.40
2017-12-20T17:33:39.805Z,3.60
2017-12-20T17:36:08.251Z,3.50
2017-12-20T17:38:35.855Z,3.17
2017-12-20T17:41:03.456Z,2.93
2017-12-20T17:43:31.114Z,3.80
2017-12-20T17:45:59.488Z,3.23
2017-12-20T17:48:27.829Z,2.63
2017-12-20T17:50:55.408Z,2.87
2017-12-20T17:53:26.352Z,3.20
2017-12-20T17:55:53.943Z,3.77
2017-12-20T17:58:21.606Z,3.23
2017-12-20T18:00:49.203Z,3.03
2017-12-20T18:03:16.779Z,3.50
2017-12-20T18:05:44.345Z,2.80
2017-12-20T18:08:11.935Z,2.87
2017-12-20T18:10:40.351Z,2.50
2017-12-20T18:13:07.937Z,3.30
2017-12-20T18:15:35.531Z,3.03
2017-12-20T18:18:03.874Z,2.73
2017-12-20T18:20:31.452Z,2.90
2017-12-20T18:22:59.077Z,2.40
2017-12-20T18:25:26.666Z,2.03
2017-12-20T18:27:54.246Z,2.67
2017-12-20T18:30:22.589Z,2.43
2017-12-20T18:32:50.213Z,2.80
2017-12-20T18:35:17.819Z,2.20
2017-12-20T18:37:45.401Z,2.60
2017-12-20T18:40:13.021Z,2.63
2017-12-20T18:42:40.602Z,2.47
2017-12-20T18:45:08.189Z,3.10
2017-12-20T18:47:35.775Z,2.70
2017-12-20T18:50:03.346Z,2.97
2017-12-20T18:52:30.945Z,2.40
2017-12-20T18:54:58.530Z,2.57
2017-12-20T18:57:26.117Z,2.57
2017-12-20T18:59:54.472Z,2.33
2017-12-20T19:02:22.040Z,2.50
2017-12-20T19:04:50.427Z,2.60
2017-12-20T19:07:18.787Z,2.37
2017-12-20T19:09:46.381Z,2.10
2017-12-20T19:12:13.977Z,2.10
2017-12-20T19:14:41.544Z,2.70
2017-12-20T19:17:09.154Z,2.20
2017-12-20T19:19:37.494Z,2.73
2017-12-20T19:22:05.086Z,2.20
2017-12-20T19:24:33.436Z,2.07
2017-12-20T19:27:13.519Z,2.10
2017-12-20T19:29:41.922Z,2.47
2017-12-20T19:32:09.507Z,2.10
2017-12-20T19:34:37.081Z,2.00
2017-12-20T19:37:04.669Z,2.27
2017-12-20T19:39:32.244Z,2.60
2017-12-20T19:42:00.620Z,2.27
2017-12-20T19:44:28.979Z,3.00
2017-12-20T19:46:56.574Z,1.90
2017-12-20T19:49:24.193Z,2.70
2017-12-20T19:51:51.793Z,2.23
2017-12-20T19:54:20.227Z,2.30
2017-12-20T19:56:47.825Z,1.90
2017-12-20T19:59:18.125Z,2.13
2017-12-20T20:01:45.731Z,2.17
2017-12-20T20:04:13.325Z,2.30
2017-12-20T20:06:40.924Z,2.60
2017-12-20T20:09:08.518Z,2.43
2017-12-20T20:11:36.100Z,2.10
2017-12-20T20:14:03.691Z,2.40
2017-12-20T20:16:31.328Z,1.97
2017-12-20T20:18:58.891Z,2.13
2017-12-20T20:21:26.477Z,2.80
2017-12-20T20:23:55.067Z,2.47
2017-12-20T20:26:22.656Z,2.17
2017-12-20T20:28:51.014Z,2.50
2017-12-20T20:31:23.259Z,2.63
2017-12-20T20:33:50.857Z,2.30
2017-12-20T20:36:19.199Z,2.47
2017-12-20T20:38:46.812Z,2.67
2017-12-20T20:41:14.403Z,2.43
2017-12-20T20:43:42.091Z,2.63
2017-12-20T20:46:09.716Z,2.30
2017-12-20T20:48:37.320Z,2.50
2017-12-20T20:51:04.905Z,2.07
2017-12-20T20:53:33.267Z,2.27
2017-12-20T20:56:00.857Z,1.93
2017-12-20T20:58:29.216Z,2.33
2017-12-20T21:00:56.808Z,2.60
2017-12-20T21:03:24.418Z,2.70
2017-12-20T21:05:52.025Z,2.40
2017-12-20T21:08:19.618Z,2.40
2017-12-20T21:10:47.237Z,2.63
2017-12-20T21:13:15.588Z,2.30
2017-12-20T21:15:43.172Z,2.83
2017-12-20T21:18:12.544Z,2.10
2017-12-20T21:20:40.118Z,2.90
2017-12-20T21:23:07.728Z,2.33
2017-12-20T21:25:35.292Z,2.60
2017-12-20T21:28:02.896Z,2.97
2017-12-20T21:30:30.491Z,2.83
2017-12-20T21:32:58.837Z,2.83
2017-12-20T21:35:26.484Z,2.53
2017-12-20T21:37:54.905Z,3.10
2017-12-20T21:40:23.270Z,2.93
2017-12-20T21:42:52.815Z,2.73
2017-12-20T21:45:20.402Z,2.17
2017-12-20T21:47:47.991Z,2.73
2017-12-20T21:50:15.591Z,2.50
2017-12-20T21:52:43.277Z,2.77
2017-12-20T21:55:11.632Z,2.70
2017-12-20T21:57:39.217Z,2.10
2017-12-20T22:00:06.802Z,2.73
2017-12-20T22:02:34.379Z,1.87
2017-12-20T22:05:01.975Z,2.50
2017-12-20T22:07:29.548Z,2.53
2017-12-20T22:09:57.175Z,2.37
2017-12-20T22:12:26.313Z,2.87
2017-12-20T22:14:54.706Z,2.20
2017-12-20T22:17:22.294Z,1.97
2017-12-20T22:19:49.896Z,2.40
2017-12-20T22:22:17.554Z,2.23
2017-12-20T22:24:45.167Z,2.63
2017-12-20T22:27:12.751Z,2.33
2017-12-20T22:29:41.104Z,2.10
2017-12-20T22:32:08.674Z,2.00
2017-12-20T22:34:36.287Z,2.00
2017-12-20T22:37:04.991Z,2.30
2017-12-20T22:39:32.578Z,2.40
2017-12-20T22:42:00.150Z,1.97
2017-12-20T22:44:28.527Z,2.20
2017-12-20T22:46:56.178Z,2.10
2017-12-20T22:49:23.746Z,2.20
2017-12-20T22:51:52.159Z,2.30
2017-12-20T22:54:20.511Z,3.00
2017-12-20T22:56:48.106Z,2.20
2017-12-20T22:59:15.752Z,2.10
2017-12-20T23:01:43.362Z,2.20
2017-12-20T23:04:10.973Z,2.30
2017-12-20T23:06:39.309Z,2.23
2017-12-20T23:09:06.920Z,2.53
2017-12-20T23:11:35.268Z,2.27
2017-12-20T23:14:02.903Z,2.13
2017-12-20T23:16:30.599Z,2.43
2017-12-20T23:18:58.183Z,2.67
2017-12-20T23:21:26.548Z,2.00
2017-12-20T23:23:54.910Z,2.57
2017-12-20T23:26:22.491Z,2.50
2017-12-20T23:28:50.904Z,2.20
2017-12-20T23:31:18.468Z,2.07
2017-12-20T23:33:46.095Z,2.20
2017-12-20T23:36:14.449Z,2.10
2017-12-20T23:38:42.037Z,2.37
2017-12-20T23:41:09.630Z,2.10
2017-12-20T23:43:37.311Z,2.07
2017-12-20T23:46:04.917Z,2.00
2017-12-20T23:48:32.507Z,2.03
2017-12-20T23:51:00.129Z,2.07
2017-12-20T23:53:27.721Z,2.53
2017-12-20T23:55:56.078Z,2.30
2017-12-20T23:58:23.708Z,2.30
